Glencove, Washington
Current Conditions -  °F | °C
As of 4:53 PM on Saturday 25 Oct 2014 (Local Time) from KTIW Reporting Station
Overcast Overcast  
Wind Chill: 62°   Ceiling: 4200
Heat Index: 62°   Visibility: 10mi
Dew Point: 49°   Wind: 23mph
Humidity: 62%   Direction: 170°S
Pressure: 29.27"   Gusts: 35mph
Location:  47.2986°N, 122.616°W
Report Text: KTIW 252353Z 17020G30KT 10SM BKN042 OVC060 17/09 A2927 RMK AO2 PK WND 16031/2341 SLP912 60007 T01670094 10167 20117 56019
Loading
Personal Weather Stations






























Interactive Weather Map
Tropical Storm Tracking
New forecast layout! Learn more

10-Day Weather Forecast

Advertisements
Track Severe Weather on mobile